Cadaretta, Mississippi
Current Conditions -  °F | °C
As of 11:53 AM on Friday 24 Oct 2014 (Local Time) from KGWO Reporting Station
Clear Clear  
Wind Chill: 67°   Ceiling: Unl
Heat Index: 67°   Visibility: 10mi
Dew Point: 43°   Wind: 6mph
Humidity: 42%   Direction: 350°N
Pressure: 30.15"   Gusts: NA
Location:  33.7185°N, 89.5665°W
Report Text: KGWO 241653Z AUTO 35005KT 10SM CLR 19/06 A3015 RMK AO2 SLP208 T01940061 TSNO
Loading
Personal Weather Stations






























Interactive Weather Map
Tropical Storm Tracking
New forecast layout! Learn more

10-Day Weather Forecast

Advertisements
Track Severe Weather on mobile